Time;durP1;ratioP1;P1;durP2;ratioP2;P2;SDS_P1;SDS_P2;PMS_P1;PMS_P2;Temp;Humidity;BMP_temperature;BMP_pressure;BME280_temperature;BME280_humidity;BME280_pressure;Samples;Min_cycle;Max_cycle;Signal;HPM_P1;HPM_P2
2021/05/28 00:10:59;;;;;;;5.57;4.93;;;13.30;79.90;;;;;;5014042;28;20237;-88
2021/05/28 00:13:30;;;;;;;6.30;4.80;;;13.30;79.90;;;;;;4990905;28;20190;-90
2021/05/28 00:16:08;;;;;;;4.90;4.40;;;13.40;78.90;;;;;;5006939;28;20170;-91
2021/05/28 00:18:43;;;;;;;5.17;4.57;;;13.40;78.60;;;;;;5006750;28;20163;-90
2021/05/28 00:21:08;;;;;;;4.50;4.10;;;13.40;78.80;;;;;;5005951;28;20361;-90
2021/05/28 00:23:34;;;;;;;4.70;4.30;;;13.50;78.60;;;;;;5006820;28;20185;-90
2021/05/28 00:26:01;;;;;;;5.80;4.50;;;13.50;78.60;;;;;;5007955;28;20531;-91
2021/05/28 00:28:27;;;;;;;5.03;4.53;;;13.50;78.70;;;;;;5008273;28;20197;-90
2021/05/28 00:30:53;;;;;;;6.83;4.47;;;13.60;77.60;;;;;;5025450;28;20213;-91
2021/05/28 00:33:18;;;;;;;5.50;4.77;;;13.50;77.70;;;;;;5007356;28;20186;-88
2021/05/28 00:35:44;;;;;;;4.90;4.37;;;13.50;77.80;;;;;;5025203;28;20181;-88
2021/05/28 00:38:10;;;;;;;5.57;4.63;;;13.50;78.00;;;;;;5026165;28;20177;-87
2021/05/28 00:40:36;;;;;;;4.70;4.20;;;13.50;78.00;;;;;;5024890;28;20222;-88
2021/05/28 00:43:02;;;;;;;4.93;4.43;;;13.50;77.70;;;;;;5008968;28;20656;-89
2021/05/28 00:45:27;;;;;;;5.53;5.03;;;13.50;77.80;;;;;;5007923;28;20190;-88
2021/05/28 00:47:53;;;;;;;5.37;4.87;;;13.50;77.70;;;;;;5025474;28;20197;-89
2021/05/28 00:50:19;;;;;;;6.00;4.53;;;13.50;77.50;;;;;;5025015;28;20190;-89
2021/05/28 00:52:48;;;;;;;5.10;4.60;;;13.50;77.00;;;;;;5024992;28;20221;-89
2021/05/28 00:55:14;;;;;;;6.43;4.50;;;13.50;76.90;;;;;;5025443;28;20186;-89
2021/05/28 00:57:41;;;;;;;6.00;4.40;;;13.50;77.20;;;;;;5025376;28;20204;-89
2021/05/28 01:00:08;;;;;;;5.27;4.67;;;13.50;78.00;;;;;;5012763;28;20206;-89
2021/05/28 01:02:33;;;;;;;5.33;4.63;;;13.50;77.70;;;;;;5019187;28;20224;-89
2021/05/28 01:04:59;;;;;;;5.60;4.57;;;13.50;78.00;;;;;;5029520;28;20185;-89
2021/05/28 01:07:25;;;;;;;6.23;4.77;;;13.60;77.60;;;;;;5012598;28;20184;-89
2021/05/28 01:09:51;;;;;;;5.07;4.57;;;13.60;77.20;;;;;;5012723;28;20184;-88
2021/05/28 01:12:16;;;;;;;4.77;4.27;;;13.60;77.20;;;;;;4991681;28;20214;-89
2021/05/28 01:14:43;;;;;;;6.67;5.10;;;13.60;77.50;;;;;;4998966;28;20185;-88
2021/05/28 01:17:09;;;;;;;5.23;4.73;;;13.60;77.20;;;;;;5004477;28;20182;-92
2021/05/28 01:19:35;;;;;;;5.40;4.90;;;13.60;77.30;;;;;;5011520;28;20190;-89
2021/05/28 01:22:05;;;;;;;5.13;4.60;;;13.70;77.80;;;;;;5010777;28;20226;-90
2021/05/28 01:24:32;;;;;;;5.20;4.80;;;13.70;78.20;;;;;;5020388;28;20178;-93
2021/05/28 01:26:58;;;;;;;5.10;4.50;;;13.70;78.10;;;;;;5004483;28;20549;-92
2021/05/28 01:29:24;;;;;;;7.00;5.00;;;13.70;78.00;;;;;;4997524;28;20253;-89
2021/05/28 01:31:50;;;;;;;5.30;4.90;;;13.70;77.80;;;;;;5012171;28;20216;-90
2021/05/28 01:34:15;;;;;;;5.60;5.07;;;13.70;78.00;;;;;;5012488;28;20203;-89
2021/05/28 01:36:41;;;;;;;5.93;4.50;;;13.70;78.70;;;;;;4994643;28;20251;-90
2021/05/28 01:39:07;;;;;;;5.80;5.20;;;13.60;77.90;;;;;;5028702;28;20219;-89
2021/05/28 01:41:33;;;;;;;5.83;5.00;;;13.70;78.30;;;;;;5028402;28;20204;-89
2021/05/28 01:43:58;;;;;;;5.20;4.70;;;13.70;78.20;;;;;;5029241;28;20185;-89
2021/05/28 01:46:25;;;;;;;6.20;5.03;;;13.60;78.60;;;;;;5012268;28;20178;-90
2021/05/28 01:48:51;;;;;;;4.77;4.43;;;13.70;78.70;;;;;;5011520;28;20264;-89
2021/05/28 01:51:17;;;;;;;5.70;4.67;;;13.60;78.80;;;;;;5011236;28;20213;-91
2021/05/28 01:53:43;;;;;;;5.33;4.40;;;13.60;78.80;;;;;;5012298;28;20182;-90
2021/05/28 01:56:09;;;;;;;4.60;4.20;;;13.60;79.00;;;;;;5029204;28;20278;-89
2021/05/28 01:58:36;;;;;;;5.33;4.57;;;13.60;79.70;;;;;;5010983;28;20189;-89
2021/05/28 02:01:01;;;;;;;7.83;5.03;;;13.50;79.50;;;;;;5011617;28;20231;-89
2021/05/28 02:03:27;;;;;;;5.13;4.63;;;13.50;79.20;;;;;;5029768;28;20193;-91
2021/05/28 02:05:53;;;;;;;6.20;5.13;;;13.50;79.60;;;;;;5010920;28;20181;-89
2021/05/28 02:08:19;;;;;;;6.50;4.47;;;13.40;79.70;;;;;;4995771;28;20177;-89
2021/05/28 02:10:45;;;;;;;5.50;4.77;;;13.30;80.00;;;;;;4993768;28;20197;-89
2021/05/28 02:13:11;;;;;;;6.10;4.83;;;13.30;80.00;;;;;;5010674;28;20184;-90
2021/05/28 02:15:37;;;;;;;5.87;4.60;;;13.40;79.50;;;;;;5006350;28;20192;-89
2021/05/28 02:18:05;;;;;;;5.00;4.50;;;13.40;79.40;;;;;;5005780;28;20175;-89
2021/05/28 02:20:31;;;;;;;5.93;5.37;;;13.50;79.30;;;;;;5005790;28;20224;-90
2021/05/28 02:22:57;;;;;;;6.57;5.87;;;13.50;78.20;;;;;;5005085;28;20174;-89
2021/05/28 02:25:23;;;;;;;6.43;5.50;;;13.50;77.70;;;;;;5005680;28;20181;-89
2021/05/28 02:27:49;;;;;;;8.80;6.20;;;13.40;77.70;;;;;;5006655;28;20536;-89
2021/05/28 02:30:15;;;;;;;6.57;5.97;;;13.30;77.20;;;;;;5024685;28;20182;-88
2021/05/28 02:32:41;;;;;;;7.03;6.10;;;13.20;77.10;;;;;;5024837;28;20285;-89
2021/05/28 02:35:09;;;;;;;7.93;6.20;;;13.10;76.90;;;;;;5025685;28;20182;-89
2021/05/28 02:37:36;;;;;;;6.57;5.90;;;13.10;77.50;;;;;;5007596;28;20217;-89
2021/05/28 02:40:02;;;;;;;6.77;5.90;;;13.00;77.20;;;;;;5025806;28;20311;-89
2021/05/28 02:42:28;;;;;;;5.83;5.07;;;13.10;77.70;;;;;;5025631;28;20229;-88
2021/05/28 02:44:54;;;;;;;7.10;6.47;;;13.00;77.50;;;;;;5025775;28;20236;-89
2021/05/28 02:47:23;;;;;;;6.30;5.70;;;13.00;77.30;;;;;;4991380;28;20185;-89
2021/05/28 02:49:49;;;;;;;6.20;5.40;;;13.00;77.70;;;;;;4991681;28;20659;-89
2021/05/28 02:52:15;;;;;;;6.57;5.83;;;13.00;78.40;;;;;;5024568;28;20234;-90
2021/05/28 02:54:44;;;;;;;6.07;5.27;;;13.10;78.70;;;;;;5007834;28;20659;-89
2021/05/28 02:57:11;;;;;;;7.43;5.67;;;13.10;78.40;;;;;;5007613;28;20190;-89
2021/05/28 02:59:37;;;;;;;8.53;5.70;;;13.10;78.20;;;;;;4989891;28;20205;-90
2021/05/28 03:02:03;;;;;;;6.70;5.83;;;13.10;78.90;;;;;;5007215;28;20213;-89
2021/05/28 03:04:29;;;;;;;7.30;5.73;;;13.10;78.60;;;;;;5024337;28;20184;-89
2021/05/28 03:06:55;;;;;;;6.50;5.90;;;13.10;78.60;;;;;;4991793;28;20182;-89
2021/05/28 03:09:21;;;;;;;6.10;5.40;;;13.10;79.00;;;;;;5024525;28;20214;-89
2021/05/28 03:11:53;;;;;;;8.37;6.33;;;13.00;78.80;;;;;;5008525;28;20216;-89
2021/05/28 03:14:18;;;;;;;8.80;6.20;;;12.90;79.10;;;;;;5007060;28;20236;-89
2021/05/28 03:23:28;;;;;;;7.53;6.17;;;12.70;78.70;;;;;;5023653;28;20209;-88
2021/05/28 03:25:54;;;;;;;8.67;7.03;;;12.70;78.50;;;;;;5007443;28;20189;-89
2021/05/28 03:29:17;;;;;;;9.33;6.20;;;12.80;77.90;;;;;;4988931;28;20215;-89
2021/05/28 03:31:43;;;;;;;8.03;6.57;;;12.70;77.80;;;;;;5011686;28;20211;-89
2021/05/28 03:34:31;;;;;;;9.17;7.00;;;12.80;77.30;;;;;;4973966;28;20225;-89
2021/05/28 03:37:33;;;;;;;7.53;6.47;;;12.80;77.30;;;;;;4961347;28;20193;-89
2021/05/28 03:40:00;;;;;;;7.77;6.97;;;12.80;77.40;;;;;;5006753;28;20288;-89
2021/05/28 03:42:57;;;;;;;7.80;6.67;;;12.80;77.30;;;;;;5006335;28;20237;-89
2021/05/28 03:45:22;;;;;;;9.77;7.83;;;12.70;77.30;;;;;;4988595;28;20269;-88
2021/05/28 03:47:48;;;;;;;9.30;6.53;;;12.70;77.50;;;;;;4988721;28;20186;-89
2021/05/28 03:50:14;;;;;;;10.83;7.10;;;12.70;78.00;;;;;;4989523;28;20257;-89
2021/05/28 03:52:40;;;;;;;9.07;6.80;;;12.70;77.90;;;;;;5002039;28;20247;-88
2021/05/28 03:55:06;;;;;;;8.37;7.40;;;12.70;78.00;;;;;;5036880;28;20204;-88
2021/05/28 03:57:32;;;;;;;8.87;7.47;;;12.70;78.20;;;;;;5033107;28;20295;-89
2021/05/28 03:59:57;;;;;;;8.27;7.47;;;12.70;78.30;;;;;;5006698;28;20782;-89
2021/05/28 04:02:23;;;;;;;14.27;8.40;;;12.60;78.20;;;;;;5023492;28;20213;-89
2021/05/28 04:04:49;;;;;;;9.17;7.27;;;12.70;78.30;;;;;;5000226;28;20219;-89
2021/05/28 04:07:14;;;;;;;9.10;7.07;;;12.60;78.90;;;;;;4997295;28;20196;-89
2021/05/28 04:09:40;;;;;;;9.03;7.23;;;12.50;79.80;;;;;;5027212;28;20193;-89
2021/05/28 04:12:07;;;;;;;8.03;7.33;;;12.50;80.30;;;;;;5008261;28;20236;-89
2021/05/28 04:14:35;;;;;;;8.20;7.40;;;12.50;79.80;;;;;;5020857;28;20177;-89
2021/05/28 04:17:00;;;;;;;10.57;7.50;;;12.40;80.60;;;;;;5037006;28;20207;-88
2021/05/28 04:19:26;;;;;;;9.90;7.83;;;12.50;80.30;;;;;;4991930;28;20224;-89
2021/05/28 04:21:52;;;;;;;7.93;7.17;;;12.50;79.50;;;;;;5025499;28;20216;-89
2021/05/28 04:24:17;;;;;;;9.83;7.63;;;12.60;79.50;;;;;;5026139;28;20184;-89
2021/05/28 04:30:25;;;;;;;8.83;7.87;;;12.60;79.00;;;;;;4965073;28;20223;-90
2021/05/28 04:32:52;;;;;;;8.03;7.33;;;12.50;79.60;;;;;;4948150;29;20214;-89
2021/05/28 04:35:18;;;;;;;9.77;8.20;;;12.50;79.80;;;;;;4977613;28;20209;-89
2021/05/28 04:37:43;;;;;;;11.00;9.87;;;12.50;80.00;;;;;;4989072;28;20204;-89
2021/05/28 04:40:10;;;;;;;13.47;12.07;;;12.50;79.80;;;;;;5005819;28;20217;-89
2021/05/28 04:42:36;;;;;;;15.40;9.23;;;12.50;79.50;;;;;;5021952;28;20292;-89
2021/05/28 04:45:03;;;;;;;8.73;7.67;;;12.50;80.00;;;;;;5007274;28;20196;-89
2021/05/28 04:47:29;;;;;;;9.50;8.60;;;12.50;79.90;;;;;;5025602;28;20255;-89
2021/05/28 04:49:55;;;;;;;10.80;7.60;;;12.50;79.70;;;;;;5025272;28;20196;-89
2021/05/28 04:52:20;;;;;;;9.60;7.97;;;12.40;79.90;;;;;;4992115;28;20216;-90
2021/05/28 04:54:46;;;;;;;9.27;7.27;;;12.40;80.20;;;;;;5008163;28;20196;-89
2021/05/28 04:57:12;;;;;;;11.07;8.77;;;12.50;80.10;;;;;;5025138;28;20254;-90
2021/05/28 04:59:37;;;;;;;12.93;10.90;;;12.50;79.70;;;;;;5007616;28;20244;-90
2021/05/28 05:02:06;;;;;;;9.70;8.57;;;12.70;79.70;;;;;;5024460;28;20220;-90
2021/05/28 05:04:31;;;;;;;11.93;9.80;;;12.60;78.90;;;;;;5008036;28;20215;-90
2021/05/28 05:06:57;;;;;;;13.03;9.60;;;12.60;78.80;;;;;;5025024;28;20255;-90
2021/05/28 05:09:25;;;;;;;12.33;9.23;;;12.50;78.90;;;;;;5024193;28;20199;-90
2021/05/28 05:11:51;;;;;;;12.53;8.97;;;12.50;79.50;;;;;;5025301;28;20208;-90
2021/05/28 05:14:17;;;;;;;12.83;9.40;;;12.60;79.20;;;;;;4991708;28;20229;-89
2021/05/28 05:16:43;;;;;;;10.83;9.73;;;12.60;79.20;;;;;;5025243;28;20176;-90
2021/05/28 05:19:08;;;;;;;11.53;8.47;;;12.60;80.00;;;;;;5025419;28;20227;-90
2021/05/28 05:21:34;;;;;;;14.47;10.43;;;12.70;79.50;;;;;;5008052;28;20205;-90
2021/05/28 05:24:03;;;;;;;12.17;10.87;;;12.70;79.60;;;;;;5022775;28;20195;-91
2021/05/28 05:26:31;;;;;;;11.47;10.17;;;12.80;79.20;;;;;;5024694;28;20189;-90
2021/05/28 05:28:57;;;;;;;12.83;9.57;;;12.80;79.00;;;;;;5024858;28;20216;-90
2021/05/28 05:31:22;;;;;;;16.07;10.40;;;12.90;79.00;;;;;;5007212;28;20221;-90
2021/05/28 05:33:48;;;;;;;14.30;9.60;;;12.90;79.50;;;;;;4985179;28;20716;-91
2021/05/28 05:36:14;;;;;;;14.00;10.13;;;12.90;79.50;;;;;;4975112;28;20212;-91
2021/05/28 05:38:39;;;;;;;12.50;9.77;;;13.00;79.50;;;;;;4992040;28;20178;-90
2021/05/28 05:41:05;;;;;;;14.70;10.57;;;13.00;79.40;;;;;;5025160;28;20216;-91
2021/05/28 05:43:31;;;;;;;11.70;10.50;;;13.00;79.50;;;;;;4992129;28;20184;-91
2021/05/28 05:45:57;;;;;;;15.57;11.33;;;13.00;79.10;;;;;;5011855;28;20188;-90
2021/05/28 05:48:23;;;;;;;13.33;11.97;;;13.00;79.00;;;;;;5011893;28;20196;-90
2021/05/28 05:50:49;;;;;;;12.17;10.77;;;13.00;79.10;;;;;;5028740;28;20231;-91
2021/05/28 05:53:15;;;;;;;12.47;9.80;;;13.00;79.10;;;;;;5028927;28;20189;-91
2021/05/28 05:55:40;;;;;;;14.47;10.63;;;13.20;78.30;;;;;;5024704;28;20196;-91
2021/05/28 05:58:06;;;;;;;11.60;10.37;;;13.10;77.70;;;;;;5028219;28;20193;-91
2021/05/28 06:00:32;;;;;;;12.63;10.57;;;13.20;77.60;;;;;;5027781;28;20211;-91
2021/05/28 06:02:58;;;;;;;14.53;10.60;;;13.20;77.70;;;;;;5028295;28;20272;-91
2021/05/28 06:05:23;;;;;;;11.00;10.00;;;13.30;77.60;;;;;;5025813;28;20639;-91
2021/05/28 06:07:49;;;;;;;12.00;10.13;;;13.30;77.40;;;;;;5010820;28;20191;-91
2021/05/28 06:10:15;;;;;;;11.83;8.90;;;13.30;76.60;;;;;;5010633;28;20204;-90
2021/05/28 06:12:41;;;;;;;13.93;10.20;;;13.40;76.30;;;;;;5028123;28;20205;-91
2021/05/28 06:15:07;;;;;;;13.10;9.70;;;13.40;76.10;;;;;;5027923;28;20577;-90
2021/05/28 06:17:44;;;;;;;12.37;9.67;;;13.40;76.00;;;;;;5026577;28;20192;-90
2021/05/28 06:20:28;;;;;;;13.00;10.23;;;13.50;75.60;;;;;;5023442;28;20211;-90
2021/05/28 06:22:55;;;;;;;12.03;9.80;;;13.40;75.60;;;;;;5028670;28;20211;-90
2021/05/28 06:25:20;;;;;;;12.63;9.63;;;13.40;76.30;;;;;;5010468;28;20200;-91
2021/05/28 06:27:46;;;;;;;12.40;10.10;;;13.40;76.20;;;;;;5028477;28;20253;-90
2021/05/28 06:30:14;;;;;;;11.37;10.03;;;13.40;76.60;;;;;;5010473;28;20189;-90
2021/05/28 06:32:40;;;;;;;11.40;9.80;;;13.50;77.00;;;;;;5027801;28;20216;-89
2021/05/28 06:35:11;;;;;;;11.80;10.10;;;13.50;76.90;;;;;;5026635;28;20194;-90
2021/05/28 06:37:37;;;;;;;15.17;10.00;;;13.60;76.40;;;;;;5027945;28;20203;-89
2021/05/28 06:40:05;;;;;;;12.27;8.97;;;13.60;76.30;;;;;;5018748;28;20217;-89
2021/05/28 06:42:32;;;;;;;11.47;10.20;;;13.60;76.00;;;;;;5028014;28;20233;-90
2021/05/28 06:44:57;;;;;;;12.87;8.90;;;13.70;75.60;;;;;;5028332;28;20183;-90
2021/05/28 06:47:25;;;;;;;10.60;9.50;;;13.80;75.70;;;;;;4994540;28;20275;-90
2021/05/28 06:49:53;;;;;;;16.70;11.03;;;13.80;75.30;;;;;;4992306;28;20217;-91
2021/05/28 06:52:19;;;;;;;15.90;11.17;;;13.90;75.40;;;;;;4990377;28;20274;-92
2021/05/28 06:54:48;;;;;;;13.17;10.60;;;13.90;75.30;;;;;;5019741;28;20155;-93
2021/05/28 06:57:14;;;;;;;15.00;9.77;;;13.90;75.90;;;;;;5002597;28;20191;-94
2021/05/28 07:00:14;;;;;;;11.43;10.23;;;14.00;74.80;;;;;;5024797;28;20220;-93
2021/05/28 07:03:27;;;;;;;14.73;9.87;;;13.90;74.70;;;;;;5017499;28;20315;-94
2021/05/28 07:05:52;;;;;;;12.00;10.23;;;14.10;75.30;;;;;;4998155;28;20179;-91
2021/05/28 07:08:18;;;;;;;12.03;10.87;;;14.10;74.30;;;;;;4965378;28;20224;-92
2021/05/28 07:10:44;;;;;;;12.53;11.20;;;14.10;74.30;;;;;;4990818;28;20269;-92
2021/05/28 07:13:57;;;;;;;13.50;11.07;;;14.20;73.40;;;;;;5024463;28;20182;-92
2021/05/28 07:16:23;;;;;;;12.73;11.43;;;14.10;73.60;;;;;;4999442;28;20200;-91
2021/05/28 07:18:49;;;;;;;12.97;9.50;;;14.00;73.80;;;;;;5005862;28;20178;-91
2021/05/28 07:21:15;;;;;;;13.63;11.57;;;14.00;73.90;;;;;;5010304;28;20248;-91
2021/05/28 07:23:41;;;;;;;12.10;11.00;;;14.00;74.20;;;;;;5006417;28;20189;-90
2021/05/28 07:26:07;;;;;;;12.47;11.27;;;14.00;74.00;;;;;;4988461;28;20206;-91
2021/05/28 07:28:33;;;;;;;13.13;11.37;;;14.20;72.90;;;;;;5025292;28;20194;-91
2021/05/28 07:41:18;;;;;;;12.73;10.70;;;14.70;72.00;;;;;;4966303;29;20685;-88
2021/05/28 07:43:44;;;;;;;18.53;10.93;;;14.90;70.20;;;;;;4964680;29;20191;-89
2021/05/28 07:46:09;;;;;;;11.00;9.90;;;15.00;70.40;;;;;;5021495;28;20200;-88
2021/05/28 07:48:35;;;;;;;11.17;9.27;;;15.10;69.50;;;;;;5025314;28;20178;-88
2021/05/28 07:51:01;;;;;;;11.13;8.40;;;15.00;69.90;;;;;;5006680;28;20216;-89
2021/05/28 07:53:27;;;;;;;8.83;7.80;;;15.10;69.10;;;;;;5006681;28;20203;-90
2021/05/28 07:55:59;;;;;;;10.23;7.63;;;15.30;68.00;;;;;;5005814;28;20197;-89
2021/05/28 07:58:26;;;;;;;9.13;7.60;;;15.50;65.50;;;;;;5023811;28;20189;-89
2021/05/28 08:00:52;;;;;;;13.17;7.97;;;15.60;65.60;;;;;;5008037;28;20244;-88
2021/05/28 08:03:17;;;;;;;18.60;7.57;;;15.70;64.90;;;;;;5007025;28;20219;-88
2021/05/28 08:05:45;;;;;;;7.90;7.03;;;15.80;64.90;;;;;;5005423;28;20546;-88
2021/05/28 08:08:11;;;;;;;11.23;7.60;;;15.90;65.70;;;;;;5011464;28;20185;-88
2021/05/28 08:10:37;;;;;;;14.17;7.73;;;16.10;62.90;;;;;;5030610;28;20207;-88
2021/05/28 08:13:04;;;;;;;7.80;6.70;;;16.20;62.70;;;;;;5027481;28;20265;-89
2021/05/28 08:15:31;;;;;;;11.07;7.20;;;16.40;61.90;;;;;;5023583;28;20521;-88
2021/05/28 08:17:57;;;;;;;8.13;6.53;;;16.40;59.90;;;;;;5023191;28;20213;-89
2021/05/28 08:20:23;;;;;;;8.47;7.17;;;16.50;61.80;;;;;;5005165;28;20208;-89
2021/05/28 08:22:50;;;;;;;8.10;6.73;;;16.40;61.00;;;;;;5005516;28;20197;-89
2021/05/28 08:25:17;;;;;;;9.90;7.17;;;16.40;62.40;;;;;;5017250;28;20175;-90
2021/05/28 08:27:42;;;;;;;10.93;7.77;;;16.70;60.20;;;;;;5022740;28;20182;-89
2021/05/28 08:30:09;;;;;;;77.00;11.97;;;16.80;60.30;;;;;;5023768;28;20194;-88
2021/05/28 08:32:35;;;;;;;8.77;7.77;;;16.60;59.80;;;;;;5023991;28;20217;-88
2021/05/28 08:35:01;;;;;;;8.60;6.80;;;16.50;60.50;;;;;;5023695;28;20201;-88
2021/05/28 08:37:26;;;;;;;29.53;7.03;;;16.40;59.60;;;;;;5005953;28;20186;-89
2021/05/28 08:39:52;;;;;;;10.27;6.23;;;16.60;59.90;;;;;;5003309;28;20216;-88
2021/05/28 08:42:21;;;;;;;30.33;9.07;;;17.00;58.90;;;;;;5005591;28;20224;-90
2021/05/28 08:44:48;;;;;;;14.37;7.00;;;17.10;58.80;;;;;;5006364;28;20533;-90
2021/05/28 08:47:16;;;;;;;13.00;7.20;;;17.10;59.00;;;;;;4973478;28;20188;-90
2021/05/28 08:49:51;;;;;;;8.37;7.13;;;17.10;59.00;;;;;;5023328;28;20188;-87
2021/05/28 08:52:20;;;;;;;9.33;7.47;;;17.10;58.50;;;;;;5023237;28;20239;-90
2021/05/28 08:54:47;;;;;;;10.30;8.07;;;17.00;58.80;;;;;;5005492;28;20174;-90
2021/05/28 08:57:13;;;;;;;8.77;6.30;;;16.90;58.90;;;;;;5005726;28;20283;-88
2021/05/28 08:59:39;;;;;;;15.00;6.77;;;16.90;58.70;;;;;;5023410;28;20267;-89
2021/05/28 09:02:29;;;;;;;11.90;5.60;;;16.90;58.70;;;;;;5005355;28;20222;-88
2021/05/28 09:05:04;;;;;;;14.17;6.60;;;17.10;58.00;;;;;;4989192;28;20185;-88
2021/05/28 09:07:30;;;;;;;18.90;7.67;;;17.20;58.60;;;;;;5005601;28;20180;-87
2021/05/28 09:09:56;;;;;;;9.33;5.67;;;17.10;58.40;;;;;;5005361;28;20187;-88
2021/05/28 09:12:28;;;;;;;11.73;6.57;;;17.00;57.90;;;;;;4989347;28;20252;-88
2021/05/28 09:14:54;;;;;;;10.07;6.23;;;17.00;57.60;;;;;;5006604;28;20186;-88
2021/05/28 09:17:21;;;;;;;6.80;5.97;;;16.80;57.70;;;;;;5024110;28;20182;-88
2021/05/28 09:19:52;;;;;;;5.97;5.47;;;16.90;57.60;;;;;;5008188;28;20197;-89
2021/05/28 09:22:20;;;;;;;5.97;5.40;;;17.20;58.00;;;;;;5028419;28;20194;-89
2021/05/28 09:24:46;;;;;;;7.73;6.47;;;17.50;56.50;;;;;;5027690;28;20177;-89
2021/05/28 09:27:36;;;;;;;7.10;6.43;;;17.70;56.70;;;;;;5027706;28;20184;-90
2021/05/28 09:30:19;;;;;;;7.87;6.23;;;17.60;57.50;;;;;;5021697;28;20263;-91
2021/05/28 09:32:49;;;;;;;7.07;6.37;;;17.50;57.30;;;;;;5009576;28;20204;-90
2021/05/28 09:35:19;;;;;;;6.07;5.53;;;17.50;57.60;;;;;;5027597;28;20264;-89
2021/05/28 09:37:52;;;;;;;8.33;7.17;;;17.30;57.20;;;;;;5028074;28;20193;-90
2021/05/28 09:40:28;;;;;;;8.20;7.33;;;16.90;58.40;;;;;;5031267;28;20204;-89
2021/05/28 09:42:57;;;;;;;7.13;6.43;;;16.70;58.80;;;;;;5040406;28;20174;-89
2021/05/28 09:45:26;;;;;;;7.90;6.43;;;16.90;59.00;;;;;;5012996;28;20197;-89
2021/05/28 09:47:52;;;;;;;9.37;6.40;;;17.20;59.20;;;;;;5028125;28;20249;-90
2021/05/28 09:50:18;;;;;;;8.07;6.53;;;17.40;56.80;;;;;;5004147;28;20188;-89
2021/05/28 09:52:44;;;;;;;7.40;6.70;;;17.90;57.50;;;;;;5040024;28;20222;-89
2021/05/28 09:55:12;;;;;;;10.43;6.77;;;17.90;55.30;;;;;;5031232;28;20191;-90
2021/05/28 09:57:40;;;;;;;7.70;6.97;;;17.80;56.30;;;;;;5004791;28;20190;-89
2021/05/28 10:00:08;;;;;;;8.53;6.87;;;17.60;56.00;;;;;;5027206;28;20205;-89
2021/05/28 10:02:37;;;;;;;8.30;5.60;;;17.80;56.10;;;;;;5022759;28;20249;-89
2021/05/28 10:05:05;;;;;;;6.47;5.80;;;18.00;55.10;;;;;;5009157;28;20193;-89
2021/05/28 10:07:31;;;;;;;6.47;5.87;;;18.10;54.00;;;;;;5008279;28;20277;-90
2021/05/28 10:09:57;;;;;;;6.40;5.80;;;18.50;54.60;;;;;;5024375;28;20199;-90
2021/05/28 10:12:25;;;;;;;6.50;5.90;;;18.80;52.80;;;;;;5025054;28;20219;-90
2021/05/28 10:14:51;;;;;;;6.75;5.80;;;18.90;51.70;;;;;;5025460;28;20212;-90
2021/05/28 10:17:18;;;;;;;6.40;5.80;;;19.00;51.50;;;;;;5013005;28;20201;-89
2021/05/28 10:19:45;;;;;;;6.73;5.80;;;18.40;51.30;;;;;;5024264;28;20213;-89
2021/05/28 10:22:12;;;;;;;7.97;5.60;;;18.30;52.20;;;;;;4999450;28;20230;-89
2021/05/28 10:24:39;;;;;;;5.90;5.30;;;18.30;51.20;;;;;;5010956;28;20210;-89
2021/05/28 10:27:05;;;;;;;8.07;4.60;;;18.20;51.80;;;;;;5028160;28;20180;-89
2021/05/28 10:29:31;;;;;;;8.13;5.00;;;18.60;50.70;;;;;;5014317;28;20197;-89
2021/05/28 10:31:57;;;;;;;6.40;5.20;;;19.30;49.50;;;;;;5013743;28;20219;-89
2021/05/28 10:34:25;;;;;;;5.40;4.90;;;19.70;48.70;;;;;;5016632;28;20192;-89
2021/05/28 10:36:50;;;;;;;5.13;4.50;;;19.90;48.70;;;;;;5012290;28;20188;-89
2021/05/28 10:39:17;;;;;;;5.05;4.55;;;19.90;47.20;;;;;;5027640;28;20808;-89
2021/05/28 10:41:53;;;;;;;4.88;4.38;;;19.40;48.40;;;;;;5024982;28;20207;-89
2021/05/28 10:44:22;;;;;;;6.87;5.63;;;18.90;48.90;;;;;;5028075;28;20161;-89
2021/05/28 10:46:55;;;;;;;5.22;4.53;;;18.90;48.50;;;;;;5017296;28;20184;-89
2021/05/28 10:49:36;;;;;;;5.97;4.68;;;19.10;48.20;;;;;;5027406;28;20180;-89
2021/05/28 10:52:03;;;;;;;5.38;4.55;;;19.40;48.70;;;;;;5011800;28;20296;-89
2021/05/28 10:54:31;;;;;;;5.03;4.60;;;19.50;48.20;;;;;;5010017;28;20204;-90
2021/05/28 10:57:20;;;;;;;5.87;4.50;;;19.10;48.90;;;;;;5009000;28;20183;-89
2021/05/28 10:59:48;;;;;;;4.50;4.10;;;18.80;50.20;;;;;;5023781;28;20552;-89
2021/05/28 11:02:16;;;;;;;6.07;4.70;;;19.00;49.30;;;;;;5024862;28;20218;-89
2021/05/28 11:04:42;;;;;;;5.78;4.13;;;19.80;48.00;;;;;;5028863;28;20208;-88
2021/05/28 11:07:10;;;;;;;4.57;4.18;;;20.20;46.90;;;;;;5014471;28;20206;-89
2021/05/28 11:09:49;;;;;;;5.75;5.25;;;20.60;46.90;;;;;;5011772;28;20182;-88
2021/05/28 11:12:35;;;;;;;5.30;4.90;;;20.80;45.40;;;;;;5038916;28;20223;-89
2021/05/28 11:15:13;;;;;;;4.65;4.25;;;20.90;43.60;;;;;;5006802;28;20261;-89
2021/05/28 11:18:03;;;;;;;4.47;4.07;;;21.20;44.10;;;;;;5019124;28;20193;-89
2021/05/28 11:20:39;;;;;;;4.97;4.47;;;20.80;43.20;;;;;;5027916;28;20202;-89
2021/05/28 11:23:12;;;;;;;8.88;3.97;;;20.90;44.30;;;;;;5010722;28;20196;-89
2021/05/28 11:25:50;;;;;;;4.13;3.70;;;21.50;42.20;;;;;;5030873;28;20196;-88
2021/05/28 11:28:15;;;;;;;3.92;3.58;;;22.00;42.40;;;;;;5015037;28;20181;-89
2021/05/28 11:30:45;;;;;;;4.97;4.50;;;21.80;41.60;;;;;;5013290;28;20202;-90
2021/05/28 11:33:33;;;;;;;5.15;4.00;;;21.10;42.20;;;;;;5026720;28;20224;-89
2021/05/28 11:35:59;;;;;;;4.45;4.05;;;20.10;44.70;;;;;;5025889;28;20651;-90
2021/05/28 11:38:33;;;;;;;3.85;3.55;;;19.90;45.10;;;;;;5009218;28;20213;-88
2021/05/28 11:40:59;;;;;;;6.57;3.72;;;20.10;44.80;;;;;;5019144;28;20224;-89
2021/05/28 11:43:25;;;;;;;4.32;3.55;;;20.30;43.80;;;;;;5004164;28;20211;-88
2021/05/28 11:45:55;;;;;;;4.65;3.90;;;20.60;42.40;;;;;;5025393;28;20184;-88
2021/05/28 11:48:23;;;;;;;3.92;3.58;;;20.60;43.10;;;;;;5021190;28;20183;-87
2021/05/28 11:50:59;;;;;;;4.57;3.88;;;21.20;42.20;;;;;;5007359;28;20719;-89
2021/05/28 11:53:38;;;;;;;4.70;3.92;;;21.90;40.40;;;;;;5006737;28;20284;-89
2021/05/28 11:56:05;;;;;;;4.18;3.40;;;21.50;40.20;;;;;;5024414;28;20181;-89
2021/05/28 11:58:35;;;;;;;3.65;3.35;;;21.80;39.80;;;;;;5023656;28;20189;-89
2021/05/28 12:01:03;;;;;;;4.72;3.97;;;22.00;40.20;;;;;;5006681;28;20228;-90
2021/05/28 12:03:29;;;;;;;3.50;3.30;;;22.50;38.80;;;;;;5025494;28;20216;-90
2021/05/28 12:05:55;;;;;;;4.13;3.35;;;22.80;38.10;;;;;;5025860;28;20181;-90
2021/05/28 12:08:27;;;;;;;3.88;3.42;;;22.80;38.00;;;;;;5026702;28;20247;-89
2021/05/28 12:10:55;;;;;;;4.30;3.85;;;22.80;37.70;;;;;;5028100;28;20272;-90
2021/05/28 12:13:26;;;;;;;3.80;3.38;;;22.80;36.70;;;;;;5009512;28;20184;-90
2021/05/28 12:16:03;;;;;;;3.78;3.30;;;22.20;37.40;;;;;;5023875;28;20185;-89
2021/05/28 12:18:47;;;;;;;3.45;3.15;;;22.20;38.00;;;;;;5015262;28;20196;-90
2021/05/28 12:21:15;;;;;;;3.00;2.80;;;22.50;37.60;;;;;;5005826;28;20225;-89
2021/05/28 12:23:44;;;;;;;3.33;3.03;;;23.10;39.00;;;;;;5025342;28;20257;-89
2021/05/28 12:26:11;;;;;;;2.80;2.60;;;23.70;35.80;;;;;;5036372;28;20173;-89
2021/05/28 12:28:41;;;;;;;3.65;2.83;;;23.70;35.20;;;;;;5024538;28;20216;-89
2021/05/28 12:31:14;;;;;;;3.30;3.10;;;23.60;35.70;;;;;;5023748;28;20198;-89
2021/05/28 12:33:51;;;;;;;4.30;3.53;;;23.60;35.30;;;;;;5006346;28;20185;-89
2021/05/28 12:36:23;;;;;;;4.43;3.10;;;23.70;35.40;;;;;;5031375;28;20169;-89
2021/05/28 12:38:51;;;;;;;4.93;3.38;;;24.10;34.90;;;;;;5037085;28;20166;-89
2021/05/28 12:41:19;;;;;;;4.00;3.70;;;24.40;34.90;;;;;;5009113;28;20221;-89
2021/05/28 12:43:46;;;;;;;3.15;2.95;;;24.40;34.20;;;;;;5027731;28;20186;-89
2021/05/28 12:46:21;;;;;;;3.53;3.05;;;24.50;34.10;;;;;;4988473;28;20182;-89
2021/05/28 12:48:52;;;;;;;3.42;3.00;;;24.30;35.00;;;;;;5022056;28;20173;-89
2021/05/28 12:51:20;;;;;;;3.30;3.00;;;24.20;33.80;;;;;;5001814;28;20225;-89
2021/05/28 12:53:46;;;;;;;3.72;3.38;;;24.30;34.30;;;;;;5023136;28;20181;-89
2021/05/28 12:56:20;;;;;;;2.95;2.75;;;24.50;34.10;;;;;;5007626;28;20191;-89
2021/05/28 12:58:46;;;;;;;3.28;3.08;;;24.20;33.70;;;;;;4992431;28;20188;-89
2021/05/28 13:01:16;;;;;;;3.88;2.90;;;23.40;36.10;;;;;;5025214;28;20252;-89
2021/05/28 13:03:43;;;;;;;5.25;2.78;;;22.90;36.30;;;;;;5004077;28;20205;-90
2021/05/28 13:06:32;;;;;;;3.50;2.90;;;23.40;35.70;;;;;;5006797;28;20188;-90
2021/05/28 13:09:10;;;;;;;5.05;2.90;;;23.90;34.70;;;;;;5008669;28;20196;-91
2021/05/28 13:11:57;;;;;;;3.08;2.78;;;24.40;34.10;;;;;;5020875;28;20217;-90
2021/05/28 13:14:46;;;;;;;3.03;2.72;;;24.60;32.80;;;;;;5021558;28;20197;-90
2021/05/28 13:17:15;;;;;;;2.45;2.30;;;24.70;32.40;;;;;;5022254;28;20181;-91
2021/05/28 13:19:44;;;;;;;2.90;2.60;;;24.70;32.30;;;;;;5012204;28;20202;-90
2021/05/28 13:22:10;;;;;;;2.47;2.38;;;24.10;32.60;;;;;;5010714;28;20209;-91